Milton, Vermont
Current Conditions -  °F | °C
As of 12:54 PM on Saturday 25 Oct 2014 (Local Time) from KBTV Reporting Station
Overcast Overcast  
Wind Chill: 54°   Ceiling: 4000
Heat Index: 54°   Visibility: 10mi
Dew Point: 41°   Wind: 9mph
Humidity: 62%   Direction: 200°SSW
Pressure: 29.65"   Gusts: NA
Location:  44.64°N, 73.11°W
Report Text: KBTV 251654Z 20008KT 10SM BKN040 OVC050 12/05 A2965 RMK AO2 SLP043 T01220050
Loading
Personal Weather Stations






























Interactive Weather Map
Tropical Storm Tracking
New forecast layout! Learn more

10-Day Weather Forecast

Advertisements
Track Severe Weather on mobile